Time;durP1;ratioP1;P1;durP2;ratioP2;P2;SDS_P1;SDS_P2;PMS_P1;PMS_P2;Temp;Humidity;BMP_temperature;BMP_pressure;BME280_temperature;BME280_humidity;BME280_pressure;Samples;Min_cycle;Max_cycle;Signal;HPM_P1;HPM_P2
2021/09/24 01:52:07;;;;;;;0.77;0.77;;;;;;;2.71;65.40;99291.06;5047933;28;20139;-64
2021/09/24 01:54:33;;;;;;;0.30;0.30;;;;;;;2.69;65.39;99290.41;5051742;28;20511;-65
2021/09/24 01:56:59;;;;;;;0.65;0.65;;;;;;;2.68;65.49;99289.56;5051535;28;20131;-65
2021/09/24 01:59:25;;;;;;;0.82;0.82;;;;;;;2.70;65.51;99295.66;5053329;28;20518;-64
2021/09/24 02:01:51;;;;;;;0.95;0.95;;;;;;;2.70;65.47;99292.94;5030828;28;20030;-71
2021/09/24 02:04:17;;;;;;;2.92;1.60;;;;;;;2.74;65.65;99296.16;5039409;28;20044;-64
2021/09/24 02:06:44;;;;;;;6.80;0.80;;;;;;;2.73;65.57;99281.75;5037359;28;20128;-64
2021/09/24 02:09:09;;;;;;;1.88;1.27;;;;;;;2.73;65.69;99294.47;5055478;28;20132;-61
2021/09/24 02:11:36;;;;;;;0.55;0.55;;;;;;;2.74;65.75;99283.44;5037361;28;20553;-65
2021/09/24 02:14:02;;;;;;;0.63;0.63;;;;;;;2.78;65.66;99292.94;5020279;28;20044;-64
2021/09/24 02:16:28;;;;;;;1.30;1.20;;;;;;;2.85;65.51;99294.97;5054321;28;20106;-64
2021/09/24 02:18:54;;;;;;;0.82;0.52;;;;;;;2.91;65.35;99303.22;5053085;28;20044;-62
2021/09/24 02:21:20;;;;;;;1.83;1.42;;;;;;;2.95;65.35;99298.31;5055394;28;20064;-63
2021/09/24 02:23:46;;;;;;;0.55;0.55;;;;;;;3.00;65.32;99301.34;5037458;28;20128;-64
2021/09/24 02:26:12;;;;;;;0.68;0.68;;;;;;;3.04;65.42;99305.41;5054739;28;20095;-66
2021/09/24 02:28:38;;;;;;;1.27;1.15;;;;;;;3.09;65.30;99310.31;5054360;28;20380;-64
2021/09/24 02:31:09;;;;;;;0.40;0.40;;;;;;;3.13;65.22;99309.78;5037576;28;20438;-64
2021/09/24 02:33:40;;;;;;;1.52;1.40;;;;;;;3.18;65.21;99303.84;5036984;28;20044;-65
2021/09/24 02:36:08;;;;;;;0.70;0.45;;;;;;;3.24;65.01;99305.00;5054969;28;20392;-65
2021/09/24 02:38:34;;;;;;;0.63;0.57;;;;;;;3.30;64.97;99305.16;5054903;28;20128;-63
2021/09/24 02:41:01;;;;;;;0.63;0.63;;;;;;;3.36;64.98;99300.03;5036825;28;20127;-66
2021/09/24 02:43:26;;;;;;;1.80;0.77;;;;;;;3.41;64.94;99297.66;5037068;28;20414;-65
2021/09/24 02:45:52;;;;;;;0.45;0.40;;;;;;;3.47;64.86;99299.66;5037269;28;20179;-63
2021/09/24 02:48:18;;;;;;;1.13;0.75;;;;;;;3.55;64.78;99293.31;5055426;28;20423;-63
2021/09/24 02:50:45;;;;;;;0.68;0.68;;;;;;;3.63;64.50;99302.28;5054872;28;20069;-64
2021/09/24 02:53:11;;;;;;;2.08;1.98;;;;;;;3.73;64.55;99304.78;5054833;28;20049;-64
2021/09/24 02:55:36;;;;;;;0.82;0.82;;;;;;;3.79;64.49;99292.34;5054455;28;20063;-64
2021/09/24 02:58:03;;;;;;;0.85;0.85;;;;;;;3.91;64.38;99293.63;5053752;28;20044;-64
2021/09/24 03:00:29;;;;;;;1.05;0.77;;;;;;;5.14;62.06;99291.69;5054335;28;20048;-63
2021/09/24 03:02:54;;;;;;;0.30;0.30;;;;;;;7.92;56.29;99280.81;5054410;28;20036;-63
2021/09/24 03:05:20;;;;;;;0.40;0.40;;;;;;;10.81;50.59;99288.03;5036535;28;20040;-65
2021/09/24 03:07:46;;;;;;;0.25;0.25;;;;;;;13.08;47.39;99292.44;5054049;28;20087;-64
2021/09/24 03:10:13;;;;;;;0.47;0.47;;;;;;;14.95;45.26;99279.34;5053555;28;20501;-64
2021/09/24 03:12:39;;;;;;;0.32;0.32;;;;;;;16.46;43.57;99273.53;5036392;28;20052;-64
2021/09/24 03:15:07;;;;;;;1.50;0.80;;;;;;;17.63;42.95;99265.53;5036616;28;20045;-64
2021/09/24 03:17:32;;;;;;;0.52;0.52;;;;;;;18.51;42.43;99269.44;5054453;28;20041;-64
2021/09/24 03:19:58;;;;;;;0.30;0.30;;;;;;;19.42;42.24;99276.09;5054169;28;20037;-64
2021/09/24 03:22:24;;;;;;;0.95;0.52;;;;;;;20.20;41.80;99271.09;5054171;28;20048;-64
2021/09/24 03:24:50;;;;;;;0.20;0.20;;;;;;;20.79;41.72;99280.47;5054064;28;20551;-63
2021/09/24 03:27:16;;;;;;;0.30;0.30;;;;;;;21.29;41.48;99280.31;5054049;28;20132;-65
2021/09/24 03:29:42;;;;;;;0.25;0.25;;;;;;;21.94;41.41;99267.88;5053444;28;20159;-65
2021/09/24 03:32:08;;;;;;;0.25;0.25;;;;;;;22.53;40.79;99274.06;5035961;28;20435;-65
2021/09/24 03:34:34;;;;;;;0.40;0.40;;;;;;;22.16;41.75;99269.28;5036239;28;20510;-64
2021/09/24 03:37:00;;;;;;;0.93;0.75;;;;;;;19.87;45.99;99278.22;5053758;28;20511;-64
2021/09/24 03:39:25;;;;;;;0.55;0.55;;;;;;;17.16;50.83;99281.91;5054010;28;20045;-64
2021/09/24 03:41:54;;;;;;;0.52;0.50;;;;;;;14.86;55.73;99286.38;5053634;28;20044;-65
2021/09/24 03:44:20;;;;;;;1.10;1.00;;;;;;;12.99;59.33;99290.31;5054238;28;20041;-64
2021/09/24 03:46:46;;;;;;;2.60;1.30;;;;;;;11.60;61.89;99289.31;5053385;28;20045;-64
2021/09/24 03:49:12;;;;;;;0.90;0.90;;;;;;;10.56;63.21;99289.94;5035283;28;20041;-65
2021/09/24 03:51:38;;;;;;;0.98;0.88;;;;;;;9.81;63.97;99291.41;5053134;28;20048;-65
2021/09/24 03:54:04;;;;;;;4.60;1.30;;;;;;;9.27;64.44;99288.84;5053559;28;20048;-65
2021/09/24 03:56:30;;;;;;;0.95;0.95;;;;;;;8.89;64.09;99292.31;5053262;28;20053;-63
2021/09/24 03:58:55;;;;;;;1.35;1.25;;;;;;;8.59;64.00;99289.16;5053051;28;20119;-64
2021/09/24 04:01:21;;;;;;;0.80;0.80;;;;;;;8.35;63.62;99296.88;5053280;28;20084;-65
2021/09/24 04:03:47;;;;;;;3.30;1.23;;;;;;;8.11;63.52;99289.25;5044197;28;20416;-64
2021/09/24 04:06:13;;;;;;;2.53;1.23;;;;;;;7.91;63.28;99286.50;5027274;28;20456;-64
2021/09/24 04:08:39;;;;;;;4.97;0.98;;;;;;;7.74;62.90;99295.03;5040718;28;20120;-69
2021/09/24 04:11:05;;;;;;;1.73;0.90;;;;;;;7.60;62.66;99294.16;5032961;28;20136;-65
2021/09/24 04:13:31;;;;;;;1.05;1.05;;;;;;;7.42;62.44;99293.84;5041616;28;20072;-65
2021/09/24 04:15:57;;;;;;;1.50;1.10;;;;;;;7.32;62.22;99297.81;5022815;28;20069;-65
2021/09/24 04:18:22;;;;;;;1.00;0.90;;;;;;;7.21;62.14;99284.69;5041608;28;20052;-64
2021/09/24 04:20:49;;;;;;;0.98;0.88;;;;;;;7.17;61.71;99289.75;5027013;28;20454;-63
2021/09/24 04:23:15;;;;;;;3.08;1.67;;;;;;;7.16;61.36;99289.94;5039015;28;20403;-65
2021/09/24 04:25:41;;;;;;;0.65;0.65;;;;;;;7.15;61.15;99293.72;5042052;28;20052;-66
2021/09/24 04:28:07;;;;;;;0.50;0.50;;;;;;;7.16;60.93;99287.22;5032329;28;20446;-64
2021/09/24 04:30:33;;;;;;;2.83;0.95;;;;;;;7.16;60.63;99293.50;5040979;28;20507;-65
2021/09/24 04:32:59;;;;;;;0.50;0.50;;;;;;;7.18;60.29;99283.25;5025378;28;20127;-64
2021/09/24 04:35:24;;;;;;;3.03;1.30;;;;;;;7.22;60.02;99275.47;5042858;28;20041;-64
2021/09/24 04:37:51;;;;;;;1.63;0.77;;;;;;;7.25;59.95;99277.78;5040400;28;20136;-65
2021/09/24 04:40:17;;;;;;;21.25;2.30;;;;;;;7.25;59.75;99272.34;5025678;28;20131;-64
2021/09/24 04:42:43;;;;;;;1.30;1.20;;;;;;;7.27;59.52;99270.22;5041370;28;20128;-65
2021/09/24 04:45:10;;;;;;;2.60;1.63;;;;;;;7.34;59.46;99268.38;5042387;28;20041;-64
2021/09/24 04:47:36;;;;;;;0.70;0.70;;;;;;;7.39;59.30;99276.00;5046475;28;20041;-65
2021/09/24 04:50:03;;;;;;;1.85;0.60;;;;;;;7.41;59.24;99267.59;5025438;28;20403;-64
2021/09/24 04:52:29;;;;;;;0.45;0.45;;;;;;;7.46;59.19;99276.00;5042881;28;20045;-65
2021/09/24 04:54:55;;;;;;;3.28;1.90;;;;;;;7.50;58.85;99272.66;5040250;28;20400;-64
2021/09/24 04:57:22;;;;;;;6.00;1.50;;;;;;;7.54;58.99;99268.47;5041739;28;20463;-65
2021/09/24 04:59:47;;;;;;;1.52;0.88;;;;;;;7.60;58.78;99269.56;5038569;28;20056;-64
2021/09/24 05:02:14;;;;;;;1.33;0.95;;;;;;;7.67;58.62;99275.91;5048709;28;20045;-64
2021/09/24 05:04:44;;;;;;;0.82;0.82;;;;;;;7.74;58.45;99272.34;5034313;28;20029;-66
2021/09/24 05:07:10;;;;;;;0.80;0.80;;;;;;;7.81;58.33;99279.50;5034885;28;20448;-65
2021/09/24 05:09:36;;;;;;;1.45;1.20;;;;;;;7.88;58.20;99279.53;5034506;28;20029;-66
2021/09/24 05:12:03;;;;;;;0.50;0.50;;;;;;;7.95;58.09;99272.19;5034905;28;20261;-64
2021/09/24 05:14:29;;;;;;;1.65;0.57;;;;;;;8.01;57.99;99271.38;5052899;28;20098;-63
2021/09/24 05:16:54;;;;;;;1.80;1.70;;;;;;;8.08;58.00;99268.63;5051980;28;20041;-64
2021/09/24 05:19:20;;;;;;;0.70;0.70;;;;;;;8.15;57.73;99269.50;5033744;28;20045;-65
2021/09/24 05:21:47;;;;;;;7.53;1.30;;;;;;;8.22;57.75;99261.31;5033773;28;20037;-64
2021/09/24 05:24:12;;;;;;;1.35;1.17;;;;;;;8.30;57.48;99268.47;5033729;28;20091;-66
2021/09/24 05:26:38;;;;;;;0.73;0.52;;;;;;;8.37;57.63;99277.53;5051581;28;20132;-65
2021/09/24 05:29:04;;;;;;;0.20;0.20;;;;;;;8.44;57.29;99272.94;5051280;28;20388;-66
2021/09/24 05:31:32;;;;;;;1.65;1.17;;;;;;;8.47;57.33;99277.16;5051750;28;20066;-65
2021/09/24 05:33:57;;;;;;;0.30;0.30;;;;;;;8.49;57.43;99280.50;5055333;28;20044;-65
2021/09/24 05:36:23;;;;;;;3.35;0.65;;;;;;;8.52;57.29;99275.44;5055150;28;20045;-65
2021/09/24 05:38:49;;;;;;;0.52;0.50;;;;;;;8.59;57.33;99272.72;5038287;28;20048;-64
2021/09/24 05:41:14;;;;;;;0.90;0.90;;;;;;;8.67;57.27;99272.53;5056359;28;20037;-66
2021/09/24 05:43:40;;;;;;;0.65;0.45;;;;;;;8.75;57.06;99277.75;5056655;28;20037;-64
2021/09/24 05:46:06;;;;;;;0.98;0.73;;;;;;;8.85;57.04;99268.25;5055905;28;20135;-65
2021/09/24 05:48:32;;;;;;;0.70;0.70;;;;;;;8.96;56.83;99270.38;5038008;28;20029;-65
2021/09/24 05:50:59;;;;;;;0.88;0.77;;;;;;;9.04;56.87;99261.94;5038624;28;20110;-63
2021/09/24 05:53:26;;;;;;;0.88;0.88;;;;;;;9.17;56.52;99269.28;5037218;28;20463;-64
2021/09/24 05:55:52;;;;;;;1.45;1.00;;;;;;;9.25;56.37;99273.69;5037962;28;20114;-64
2021/09/24 05:58:17;;;;;;;0.22;0.22;;;;;;;9.31;56.66;99267.34;5054984;28;20508;-64
2021/09/24 06:00:43;;;;;;;5.38;0.77;;;;;;;9.37;56.54;99260.16;5037891;28;20044;-65
2021/09/24 06:03:09;;;;;;;3.03;1.25;;;;;;;9.46;56.36;99262.44;5037779;28;20040;-65
2021/09/24 06:05:35;;;;;;;1.92;0.50;;;;;;;9.53;56.32;99261.59;5054646;28;20041;-65
2021/09/24 06:08:00;;;;;;;0.70;0.70;;;;;;;9.62;56.25;99258.38;5055807;28;20049;-65
2021/09/24 06:10:26;;;;;;;1.00;0.77;;;;;;;9.71;55.96;99264.44;5056010;28;20128;-63
2021/09/24 06:12:52;;;;;;;1.08;0.82;;;;;;;9.81;55.91;99261.25;5055932;28;20044;-64
2021/09/24 06:15:21;;;;;;;0.60;0.60;;;;;;;9.90;55.83;99246.19;5055432;28;20139;-63
2021/09/24 06:17:47;;;;;;;0.47;0.47;;;;;;;9.99;55.69;99257.75;5055377;28;20045;-64
2021/09/24 06:20:13;;;;;;;0.93;0.65;;;;;;;10.05;55.60;99248.63;5055394;28;20040;-64
2021/09/24 06:22:42;;;;;;;0.68;0.68;;;;;;;10.14;55.45;99249.22;5037825;28;20037;-63
2021/09/24 06:25:09;;;;;;;0.40;0.40;;;;;;;10.19;55.53;99243.91;5055603;28;20040;-65
2021/09/24 06:27:36;;;;;;;0.73;0.55;;;;;;;10.27;55.47;99238.16;5055060;28;20041;-64
2021/09/24 06:30:05;;;;;;;0.73;0.73;;;;;;;10.37;55.40;99234.13;5054516;28;20557;-64
2021/09/24 06:32:32;;;;;;;0.93;0.93;;;;;;;10.43;55.25;99236.78;5055140;28;20049;-64
2021/09/24 06:35:00;;;;;;;2.63;1.25;;;;;;;10.50;55.39;99242.25;5037014;28;20562;-65
2021/09/24 06:37:26;;;;;;;2.05;1.17;;;;;;;10.51;55.24;99239.28;5037663;28;20565;-65
2021/09/24 06:39:51;;;;;;;0.60;0.60;;;;;;;10.49;55.66;99237.81;5037609;28;20131;-65
2021/09/24 06:42:17;;;;;;;0.40;0.40;;;;;;;10.45;55.38;99223.69;5054771;28;20036;-65
2021/09/24 06:44:43;;;;;;;1.35;1.25;;;;;;;10.46;55.59;99216.28;5052769;28;20044;-65
2021/09/24 06:47:11;;;;;;;2.05;0.95;;;;;;;10.46;55.50;99213.56;5036827;28;20055;-64
2021/09/24 06:49:37;;;;;;;0.30;0.30;;;;;;;10.46;55.70;99216.28;5037066;28;20131;-64
2021/09/24 06:52:03;;;;;;;1.63;0.98;;;;;;;10.45;55.77;99212.72;5055011;28;20143;-64
2021/09/24 06:54:30;;;;;;;1.42;0.82;;;;;;;10.46;55.48;99219.03;5036804;28;20041;-65
2021/09/24 06:56:56;;;;;;;0.88;0.40;;;;;;;10.47;55.55;99213.31;5054629;28;20077;-64
2021/09/24 06:59:22;;;;;;;3.03;1.95;;;;;;;10.47;55.81;99205.09;5036229;28;20075;-64
2021/09/24 07:01:48;;;;;;;2.30;1.17;;;;;;;10.56;55.59;99210.31;5054748;28;20044;-65
2021/09/24 07:04:15;;;;;;;0.68;0.68;;;;;;;10.63;55.55;99200.06;5054795;28;20120;-65
2021/09/24 07:06:43;;;;;;;0.43;0.43;;;;;;;10.71;55.25;99205.28;5036570;28;20068;-65
2021/09/24 07:09:10;;;;;;;0.50;0.50;;;;;;;10.84;55.02;99204.31;5036582;28;20518;-64
2021/09/24 07:11:36;;;;;;;1.08;0.95;;;;;;;10.94;54.89;99199.16;5054233;28;20088;-65
2021/09/24 07:14:08;;;;;;;1.33;0.50;;;;;;;11.04;54.64;99209.59;5054213;28;20045;-64
2021/09/24 07:16:38;;;;;;;0.93;0.50;;;;;;;11.11;54.45;99204.03;5036798;28;20072;-65
2021/09/24 07:19:04;;;;;;;3.83;0.50;;;;;;;11.19;54.46;99212.00;5054281;28;20076;-65
2021/09/24 07:21:30;;;;;;;1.38;0.85;;;;;;;11.29;54.25;99200.44;5054417;28;20123;-64
2021/09/24 07:23:56;;;;;;;0.60;0.43;;;;;;;11.38;54.07;99205.41;5054349;28;20033;-65
2021/09/24 07:26:22;;;;;;;2.17;0.90;;;;;;;11.49;54.09;99195.53;5054053;28;20071;-65
2021/09/24 07:28:48;;;;;;;0.68;0.68;;;;;;;11.58;54.15;99196.06;5035546;28;20448;-65
2021/09/24 07:31:13;;;;;;;1.05;0.90;;;;;;;11.70;53.84;99196.09;5036109;28;20043;-65
2021/09/24 07:33:39;;;;;;;2.83;0.73;;;;;;;11.85;53.52;99198.44;5054356;28;20037;-65
2021/09/24 07:36:05;;;;;;;1.77;0.80;;;;;;;11.97;53.49;99201.25;5052606;28;20040;-65
2021/09/24 07:38:31;;;;;;;4.28;0.50;;;;;;;12.04;53.03;99204.75;5053780;28;20091;-65
2021/09/24 07:40:56;;;;;;;0.75;0.57;;;;;;;12.13;53.23;99203.34;5053860;28;20413;-65
2021/09/24 07:43:22;;;;;;;0.50;0.50;;;;;;;12.19;53.07;99205.16;5053957;28;20044;-65
2021/09/24 07:45:48;;;;;;;0.90;0.65;;;;;;;12.23;52.88;99195.34;5053750;28;20048;-65
2021/09/24 07:48:14;;;;;;;0.55;0.55;;;;;;;12.26;52.90;99189.38;5053036;28;20041;-65
2021/09/24 07:50:40;;;;;;;0.95;0.95;;;;;;;12.34;52.98;99190.94;5052002;28;20064;-65
2021/09/24 07:53:06;;;;;;;1.58;0.82;;;;;;;12.43;52.90;99192.25;5035019;28;20057;-65
2021/09/24 07:55:31;;;;;;;0.60;0.60;;;;;;;12.51;52.52;99193.81;5034337;28;20032;-66
2021/09/24 07:57:59;;;;;;;0.50;0.50;;;;;;;12.56;52.75;99193.94;5034264;28;20064;-65
2021/09/24 08:00:26;;;;;;;0.25;0.25;;;;;;;12.62;52.31;99201.25;5053231;28;20060;-65
2021/09/24 08:02:54;;;;;;;1.55;0.75;;;;;;;12.67;52.57;99202.47;5035448;28;20047;-64
2021/09/24 08:05:20;;;;;;;0.55;0.55;;;;;;;12.69;52.57;99194.78;5053348;28;20040;-64
2021/09/24 08:07:45;;;;;;;0.70;0.70;;;;;;;12.71;52.58;99192.66;5053126;28;20037;-65
2021/09/24 08:10:11;;;;;;;0.90;0.63;;;;;;;12.74;52.41;99189.41;5052960;28;20048;-66
2021/09/24 08:12:40;;;;;;;3.65;0.85;;;;;;;12.72;52.39;99192.41;5035126;28;20140;-65
2021/09/24 08:15:07;;;;;;;0.50;0.50;;;;;;;12.77;52.38;99180.66;5034701;28;20052;-65
2021/09/24 08:17:33;;;;;;;2.80;0.95;;;;;;;12.82;52.23;99189.03;5053078;28;20123;-65
2021/09/24 08:19:58;;;;;;;0.57;0.57;;;;;;;12.88;52.31;99188.09;5053459;28;20084;-64
2021/09/24 08:22:25;;;;;;;1.13;0.60;;;;;;;12.92;52.13;99177.41;5053032;28;20048;-64
2021/09/24 08:24:51;;;;;;;0.30;0.28;;;;;;;12.93;52.21;99182.69;5052926;28;20503;-66
2021/09/24 08:27:17;;;;;;;0.50;0.50;;;;;;;12.96;51.74;99173.94;5052962;28;20052;-64
2021/09/24 08:29:43;;;;;;;0.80;0.80;;;;;;;13.07;51.85;99179.66;5052851;28;20045;-65
2021/09/24 08:32:10;;;;;;;0.20;0.20;;;;;;;13.17;51.51;99179.88;5035230;28;20506;-66
2021/09/24 08:34:36;;;;;;;0.50;0.50;;;;;;;13.28;51.58;99180.94;5053160;28;20044;-65
2021/09/24 08:37:02;;;;;;;0.95;0.95;;;;;;;13.36;51.50;99175.06;5034644;28;20048;-66
2021/09/24 08:39:28;;;;;;;1.20;0.70;;;;;;;13.41;51.06;99172.44;5052814;28;20114;-65
2021/09/24 08:41:53;;;;;;;1.75;0.35;;;;;;;13.44;51.09;99171.09;5052766;28;20041;-65
2021/09/24 08:44:23;;;;;;;0.35;0.35;;;;;;;13.49;51.22;99163.75;5052652;28;20041;-66
2021/09/24 08:46:50;;;;;;;1.10;0.73;;;;;;;13.56;51.19;99163.63;5052499;28;20182;-65
2021/09/24 08:49:19;;;;;;;0.40;0.40;;;;;;;13.62;51.05;99164.56;5035021;28;20427;-64
2021/09/24 08:51:45;;;;;;;0.57;0.50;;;;;;;13.64;50.88;99168.72;5052671;28;20060;-69
2021/09/24 08:54:11;;;;;;;0.45;0.45;;;;;;;13.70;50.98;99171.59;5052410;28;20636;-66
2021/09/24 08:56:37;;;;;;;2.38;0.98;;;;;;;13.70;50.91;99179.88;5052627;28;20377;-66
2021/09/24 08:59:04;;;;;;;0.20;0.20;;;;;;;13.70;50.95;99174.38;5052300;28;20048;-66
2021/09/24 09:01:31;;;;;;;1.60;1.17;;;;;;;13.71;50.84;99174.13;5052431;28;20570;-65
2021/09/24 09:03:59;;;;;;;2.53;0.55;;;;;;;13.71;50.80;99167.78;5034462;28;20069;-68
2021/09/24 09:06:29;;;;;;;1.13;0.77;;;;;;;13.70;50.98;99160.56;5034752;28;20131;-66
2021/09/24 09:09:05;;;;;;;0.88;0.70;;;;;;;13.69;50.85;99167.16;5051854;28;20094;-64
2021/09/24 09:11:31;;;;;;;0.30;0.30;;;;;;;13.65;50.84;99166.84;5052396;28;20214;-67
2021/09/24 09:13:59;;;;;;;0.80;0.80;;;;;;;13.65;50.93;99164.06;5052486;28;20067;-64
2021/09/24 09:16:31;;;;;;;0.47;0.47;;;;;;;13.64;50.96;99160.47;5052276;28;20497;-64
2021/09/24 09:19:08;;;;;;;0.35;0.35;;;;;;;13.67;51.01;99156.38;5034267;28;20060;-64
2021/09/24 09:21:37;;;;;;;1.35;0.85;;;;;;;13.70;50.83;99169.69;5052119;28;20048;-64
2021/09/24 09:24:23;;;;;;;0.73;0.73;;;;;;;13.76;50.58;99157.66;5052583;28;20579;-65
2021/09/24 09:27:18;;;;;;;2.53;0.63;;;;;;;13.86;50.50;99164.47;5034267;28;20044;-64
2021/09/24 09:30:16;;;;;;;0.20;0.20;;;;;;;13.93;50.21;99174.25;5050990;28;20036;-65
2021/09/24 09:32:45;;;;;;;0.75;0.63;;;;;;;13.95;50.20;99166.56;4998050;28;20052;-65
2021/09/24 09:35:11;;;;;;;0.63;0.63;;;;;;;14.00;50.24;99182.38;5052334;28;20041;-64
2021/09/24 09:37:39;;;;;;;0.22;0.22;;;;;;;14.06;50.11;99177.78;5052204;28;20096;-64
2021/09/24 09:40:13;;;;;;;0.40;0.40;;;;;;;14.09;50.21;99178.13;5034099;28;20037;-65
2021/09/24 09:42:41;;;;;;;0.43;0.43;;;;;;;14.11;50.01;99175.94;5034495;28;20041;-64
2021/09/24 09:45:11;;;;;;;0.30;0.30;;;;;;;14.14;49.83;99171.84;5048705;28;20044;-65
2021/09/24 09:47:39;;;;;;;0.65;0.65;;;;;;;14.17;49.98;99172.19;5045792;28;20069;-64
2021/09/24 09:50:17;;;;;;;0.57;0.57;;;;;;;14.23;49.77;99177.81;5030979;28;20047;-63
2021/09/24 09:53:24;;;;;;;0.38;0.38;;;;;;;14.29;49.51;99165.75;5039285;28;20053;-63
2021/09/24 09:56:29;;;;;;;0.43;0.43;;;;;;;14.32;49.48;99162.50;5046838;28;20502;-64
2021/09/24 09:59:14;;;;;;;;;;;;;;;14.34;49.44;99163.91;5043882;28;20127;-63
2021/09/24 10:01:40;;;;;;;0.43;0.43;;;;;;;14.37;49.55;99171.69;5036164;28;19920;-64
2021/09/24 10:04:07;;;;;;;0.35;0.30;;;;;;;14.45;49.46;99166.84;5048839;28;20499;-66
2021/09/24 10:06:34;;;;;;;4.13;0.30;;;;;;;14.52;49.33;99175.81;5047678;28;20387;-64
2021/09/24 10:13:02;;;;;;;0.20;0.20;;;;;;;14.61;48.96;99163.25;5044164;28;20068;-64
2021/09/24 10:15:47;;;;;;;;;;;;;;;14.61;49.42;99160.50;5042194;28;20072;-64
2021/09/24 10:25:39;;;;;;;3.83;0.68;;;;;;;14.79;48.91;99150.25;5045113;28;20169;-64
2021/09/24 10:28:27;;;;;;;;;;;;;;;14.82;48.78;99146.97;5048835;28;20091;-64
2021/09/24 10:30:53;;;;;;;0.28;0.28;;;;;;;14.86;48.88;99153.69;5051719;28;19939;-64
2021/09/24 10:34:02;;;;;;;1.38;0.75;;;;;;;14.94;48.58;99146.88;5050737;28;20407;-64
2021/09/24 10:37:14;;;;;;;1.88;0.75;;;;;;;14.97;48.33;99144.44;5029799;28;20049;-64
2021/09/24 10:43:42;;;;;;;0.25;0.25;;;;;;;15.00;48.32;99143.94;5052609;28;20130;-65
2021/09/24 10:46:48;;;;;;;1.10;0.55;;;;;;;14.96;48.17;99140.00;5052319;28;20044;-66
2021/09/24 10:49:18;;;;;;;1.52;0.40;;;;;;;14.93;48.29;99148.81;5051699;28;20152;-67
2021/09/24 10:52:08;;;;;;;0.30;0.30;;;;;;;14.91;48.43;99137.16;5051818;28;20045;-64
2021/09/24 10:55:16;;;;;;;0.20;0.20;;;;;;;14.83;48.45;99127.38;5051117;28;20412;-63
2021/09/24 11:01:50;;;;;;;0.25;0.20;;;;;;;14.68;48.83;99129.94;5050934;28;20048;-62
2021/09/24 11:05:01;;;;;;;3.20;0.85;;;;;;;14.66;48.83;99138.47;5050994;28;20091;-63
2021/09/24 11:08:07;;;;;;;0.43;0.43;;;;;;;14.63;48.71;99133.44;5051622;28;20052;-62
2021/09/24 11:10:55;;;;;;;;;;;;;;;14.59;48.80;99137.78;5028639;28;20048;-64
2021/09/24 11:20:31;;;;;;;0.30;0.30;;;;;;;14.27;49.06;99130.09;5048988;28;20104;-63
2021/09/24 11:22:57;;;;;;;0.32;0.32;;;;;;;14.20;49.28;99127.50;5051177;28;20037;-63
2021/09/24 11:25:23;;;;;;;0.20;0.20;;;;;;;14.15;49.47;99129.34;5051653;28;20065;-63
2021/09/24 11:27:48;;;;;;;2.85;0.60;;;;;;;14.08;49.47;99120.41;5051421;28;20191;-62
2021/09/24 11:30:25;;;;;;;1.88;0.32;;;;;;;14.05;49.25;99121.72;5050142;28;20123;-63
2021/09/24 11:33:00;;;;;;;0.32;0.30;;;;;;;14.01;49.40;99123.31;5051154;28;20079;-67
2021/09/24 11:35:30;;;;;;;0.52;0.52;;;;;;;13.97;49.25;99117.47;5051805;28;20129;-63
2021/09/24 11:38:17;;;;;;;0.82;0.55;;;;;;;13.97;49.37;99111.09;5051367;28;20068;-64
2021/09/24 11:40:55;;;;;;;0.35;0.35;;;;;;;13.96;49.17;99110.25;5050921;28;20053;-65
2021/09/24 11:43:32;;;;;;;1.13;0.55;;;;;;;13.98;49.24;99113.59;5051099;28;20041;-62
2021/09/24 11:46:08;;;;;;;0.38;0.38;;;;;;;14.00;49.19;99114.19;5051064;28;20048;-63
2021/09/24 11:48:36;;;;;;;0.73;0.45;;;;;;;14.00;49.07;99119.72;5050748;28;20106;-63
2021/09/24 11:51:13;;;;;;;0.35;0.35;;;;;;;14.06;49.00;99119.78;5049095;28;20041;-62
2021/09/24 11:54:08;;;;;;;0.20;0.20;;;;;;;14.12;48.70;99127.94;5050939;28;20156;-65
2021/09/24 11:56:38;;;;;;;;;;;;;;;14.14;48.73;99125.75;5034281;28;20131;-63
2021/09/24 11:59:11;;;;;;;0.28;0.28;;;;;;;14.16;48.88;99122.72;5050681;28;19923;-65
2021/09/24 12:01:40;;;;;;;0.82;0.73;;;;;;;14.20;48.63;99118.38;5051077;28;20068;-63
2021/09/24 12:04:07;;;;;;;0.25;0.25;;;;;;;14.26;48.75;99114.59;5050680;28;20128;-66
2021/09/24 12:06:38;;;;;;;0.45;0.45;;;;;;;14.33;48.58;99107.00;5050871;28;20476;-66
2021/09/24 12:09:11;;;;;;;0.55;0.50;;;;;;;14.38;48.41;99103.47;5051270;28;20474;-66
2021/09/24 12:11:48;;;;;;;0.20;0.20;;;;;;;14.44;48.26;99101.63;5048284;28;20040;-64
2021/09/24 12:14:14;;;;;;;1.60;0.40;;;;;;;14.48;47.93;99102.78;5051274;28;20045;-65
2021/09/24 12:16:42;;;;;;;0.20;0.20;;;;;;;14.52;48.04;99099.25;5050186;28;20522;-64
2021/09/24 12:19:17;;;;;;;0.22;0.22;;;;;;;14.58;47.76;99097.41;5051049;28;20098;-64
2021/09/24 12:21:49;;;;;;;0.77;0.45;;;;;;;14.58;47.87;99086.38;5051265;28;20041;-63
2021/09/24 12:24:47;;;;;;;0.52;0.40;;;;;;;14.58;47.72;99091.06;5050839;28;20043;-63
2021/09/24 12:27:30;;;;;;;0.30;0.30;;;;;;;14.55;47.75;99115.34;4996166;28;20052;-65
2021/09/24 12:30:15;;;;;;;1.33;0.60;;;;;;;14.56;47.82;99096.84;5050420;28;20051;-63
2021/09/24 12:32:41;;;;;;;0.68;0.68;;;;;;;14.53;47.72;99089.03;5048372;28;20044;-65
2021/09/24 12:35:08;;;;;;;0.20;0.20;;;;;;;14.51;48.09;99086.53;5049055;28;20071;-63
2021/09/24 12:37:45;;;;;;;0.50;0.40;;;;;;;14.48;47.89;99094.50;5049705;28;20052;-68
2021/09/24 12:40:13;;;;;;;0.90;0.80;;;;;;;14.42;47.92;99098.28;5050095;28;20061;-70
2021/09/24 12:42:42;;;;;;;0.30;0.30;;;;;;;14.36;48.07;99102.91;5050017;28;20124;-70
2021/09/24 12:45:19;;;;;;;0.20;0.20;;;;;;;14.30;48.33;99101.16;5049728;28;20044;-68
2021/09/24 12:47:45;;;;;;;0.40;0.40;;;;;;;14.25;48.24;99110.19;5050281;28;20044;-67
2021/09/24 12:50:11;;;;;;;0.63;0.63;;;;;;;14.20;48.15;99105.41;5050764;28;20459;-71
2021/09/24 12:52:38;;;;;;;6.70;0.52;;;;;;;14.18;48.31;99104.00;5049767;28;20419;-72
2021/09/24 12:55:08;;;;;;;1.05;0.68;;;;;;;14.16;48.11;99100.63;5049099;28;20485;-75
2021/09/24 12:57:34;;;;;;;0.25;0.17;;;;;;;14.13;48.20;99101.13;5048939;28;20044;-75
2021/09/24 13:00:04;;;;;;;0.20;0.20;;;;;;;14.09;48.26;99095.28;5049287;28;20067;-74
2021/09/24 13:02:30;;;;;;;1.15;0.88;;;;;;;14.06;48.31;99097.72;5049950;28;20040;-70
2021/09/24 13:04:56;;;;;;;0.50;0.38;;;;;;;13.98;48.27;99104.50;5050038;28;20037;-67
2021/09/24 13:07:27;;;;;;;0.75;0.47;;;;;;;13.93;48.71;99090.63;5048946;28;20033;-68
2021/09/24 13:10:07;;;;;;;5.82;0.75;;;;;;;13.88;48.68;99091.34;5042676;28;20032;-68
2021/09/24 13:12:34;;;;;;;2.90;1.27;;;;;;;13.82;48.50;99084.06;5043873;28;20041;-68
2021/09/24 13:15:02;;;;;;;0.43;0.43;;;;;;;13.76;48.45;99085.88;5047245;28;20416;-70
2021/09/24 13:17:28;;;;;;;0.30;0.30;;;;;;;13.73;48.49;99097.44;5049743;28;20556;-71
2021/09/24 13:19:53;;;;;;;0.52;0.52;;;;;;;13.69;48.50;99103.69;5049860;28;20045;-69
2021/09/24 13:22:19;;;;;;;1.05;1.00;;;;;;;13.61;48.74;99103.00;5049663;28;20090;-70
2021/09/24 13:24:45;;;;;;;0.28;0.28;;;;;;;13.55;48.70;99100.41;5049465;28;20044;-71
2021/09/24 13:27:11;;;;;;;0.50;0.50;;;;;;;13.50;48.66;99101.16;5050167;28;20052;-69
2021/09/24 13:29:36;;;;;;;0.20;0.20;;;;;;;13.44;48.75;99100.22;5048462;28;20044;-67
2021/09/24 13:32:03;;;;;;;0.30;0.30;;;;;;;13.39;49.16;99096.53;5040602;28;20053;-68
2021/09/24 13:34:29;;;;;;;0.93;0.77;;;;;;;13.31;49.28;99109.59;5039929;28;20042;-67
2021/09/24 13:36:56;;;;;;;0.30;0.30;;;;;;;13.23;49.47;99103.63;5035542;28;20568;-70
2021/09/24 13:39:21;;;;;;;0.70;0.70;;;;;;;13.12;49.41;99106.19;5032354;28;20045;-69
2021/09/24 13:41:47;;;;;;;3.97;0.77;;;;;;;12.99;49.77;99092.69;5039429;28;20068;-69
2021/09/24 13:44:14;;;;;;;2.05;0.82;;;;;;;12.88;50.04;99105.41;5042802;28;20198;-68
2021/09/24 13:46:40;;;;;;;1.88;1.02;;;;;;;12.74;50.04;99106.75;5047233;28;20482;-66
2021/09/24 13:49:06;;;;;;;3.00;1.00;;;;;;;12.60;50.56;99101.50;5045370;28;20051;-66
2021/09/24 13:51:32;;;;;;;2.65;0.85;;;;;;;12.47;50.50;99106.41;5046446;28;20136;-64
2021/09/24 13:53:57;;;;;;;0.73;0.52;;;;;;;12.33;50.77;99100.31;5050079;28;20041;-64
2021/09/24 13:56:25;;;;;;;0.35;0.35;;;;;;;12.19;51.16;99100.53;5051648;28;20450;-63
2021/09/24 13:58:51;;;;;;;1.15;0.95;;;;;;;12.07;51.14;99102.44;5051517;28;20063;-64
2021/09/24 14:01:16;;;;;;;1.50;0.77;;;;;;;11.94;51.59;99106.25;5053275;28;20040;-65
2021/09/24 14:03:42;;;;;;;0.82;0.68;;;;;;;11.82;51.97;99108.97;5051022;28;20111;-69